Time;durP1;ratioP1;P1;durP2;ratioP2;P2;SDS_P1;SDS_P2;PMS_P1;PMS_P2;Temp;Humidity;BMP_temperature;BMP_pressure;BME280_temperature;BME280_humidity;BME280_pressure;Samples;Min_cycle;Max_cycle;Signal;HPM_P1;HPM_P2
2022/09/29 00:00:31;;;;;;;8.50;2.27;;;8.50;99.90;;;;;;5047288;28;20441;-75
2022/09/29 00:02:56;;;;;;;1.27;1.17;;;8.50;99.90;;;;;;5046759;28;20210;-75
2022/09/29 00:05:22;;;;;;;3.63;1.43;;;8.50;99.90;;;;;;5048544;28;20180;-75
2022/09/29 00:07:47;;;;;;;6.53;1.73;;;8.50;99.90;;;;;;5047125;28;20200;-75
2022/09/29 00:10:13;;;;;;;2.30;1.30;;;8.40;99.90;;;;;;5048549;28;20274;-76
2022/09/29 00:12:39;;;;;;;2.40;1.40;;;8.30;99.90;;;;;;5046697;28;20220;-75
2022/09/29 00:15:06;;;;;;;2.73;1.27;;;8.20;99.90;;;;;;5048507;28;20993;-75
2022/09/29 00:17:31;;;;;;;5.13;1.47;;;8.10;99.90;;;;;;5046951;28;20533;-75
2022/09/29 00:19:57;;;;;;;3.10;1.90;;;8.20;99.90;;;;;;5048469;28;20424;-75
2022/09/29 00:22:23;;;;;;;1.53;1.20;;;8.20;99.90;;;;;;5048617;28;20187;-75
2022/09/29 00:24:49;;;;;;;5.07;1.50;;;8.30;99.90;;;;;;5048283;28;20439;-75
2022/09/29 00:27:16;;;;;;;1.83;1.30;;;8.40;99.90;;;;;;5048496;28;20194;-75
2022/09/29 00:29:42;;;;;;;3.17;1.60;;;8.40;99.90;;;;;;5050677;28;20954;-75
2022/09/29 00:32:08;;;;;;;2.37;1.30;;;8.50;99.90;;;;;;5050609;28;20431;-75
2022/09/29 00:34:33;;;;;;;2.80;1.43;;;8.40;99.90;;;;;;5052395;28;20475;-75
2022/09/29 00:36:59;;;;;;;2.63;1.70;;;8.40;99.90;;;;;;5051971;28;20746;-76
2022/09/29 00:39:24;;;;;;;1.60;1.40;;;8.40;99.90;;;;;;5052012;28;20237;-75
2022/09/29 00:41:50;;;;;;;3.57;1.20;;;8.50;99.90;;;;;;5052225;28;20199;-75
2022/09/29 00:44:18;;;;;;;4.40;1.90;;;8.40;99.90;;;;;;5051747;28;20200;-75
2022/09/29 00:46:44;;;;;;;1.33;1.23;;;8.40;99.90;;;;;;5051901;28;20600;-75
2022/09/29 00:49:22;;;;;;;2.90;1.70;;;8.40;99.90;;;;;;5051811;28;20915;-75
2022/09/29 00:52:03;;;;;;;2.23;1.30;;;8.50;99.90;;;;;;5052024;28;20456;-75
2022/09/29 00:54:35;;;;;;;1.80;1.33;;;8.50;99.90;;;;;;5052210;28;20526;-75
2022/09/29 00:57:03;;;;;;;4.00;1.13;;;8.60;99.90;;;;;;5050474;28;21014;-75
2022/09/29 00:59:46;;;;;;;1.60;1.50;;;8.50;99.90;;;;;;5052022;28;20419;-75
2022/09/29 01:02:13;;;;;;;2.43;1.53;;;8.50;99.90;;;;;;5051864;28;20426;-75
2022/09/29 01:04:39;;;;;;;1.80;1.43;;;8.60;99.90;;;;;;5052183;28;20445;-75
2022/09/29 01:07:06;;;;;;;4.73;1.40;;;8.70;99.90;;;;;;5051106;28;21063;-75
2022/09/29 01:09:36;;;;;;;2.50;1.50;;;8.70;99.90;;;;;;5052150;28;20437;-75
2022/09/29 01:12:02;;;;;;;1.70;1.10;;;8.70;99.90;;;;;;5052262;28;20838;-75
2022/09/29 01:14:30;;;;;;;6.93;1.40;;;8.60;99.90;;;;;;5052126;28;20584;-75
2022/09/29 01:16:55;;;;;;;3.93;1.30;;;8.70;99.90;;;;;;5052123;28;20554;-75
2022/09/29 01:19:29;;;;;;;1.73;1.40;;;8.70;99.90;;;;;;5052061;28;21054;-75
2022/09/29 01:22:02;;;;;;;2.67;1.10;;;8.70;99.90;;;;;;5050397;28;20182;-75
2022/09/29 01:24:57;;;;;;;2.70;1.47;;;8.80;99.90;;;;;;5052093;28;20438;-75
2022/09/29 01:27:57;;;;;;;2.83;1.40;;;8.70;99.90;;;;;;5051986;28;20457;-75
2022/09/29 01:30:42;;;;;;;2.00;1.67;;;8.70;99.90;;;;;;5052029;28;20448;-75
2022/09/29 01:33:35;;;;;;;5.90;2.53;;;8.70;99.90;;;;;;5052085;28;20514;-75
2022/09/29 01:36:00;;;;;;;4.30;3.03;;;8.50;99.90;;;;;;5052992;28;20466;-75
2022/09/29 01:39:17;;;;;;;5.10;3.57;;;8.40;99.90;;;;;;5052880;28;20425;-75
2022/09/29 01:42:22;;;;;;;8.60;3.93;;;8.20;99.90;;;;;;5029408;28;20231;-75
2022/09/29 01:44:54;;;;;;;3.77;3.20;;;8.10;99.90;;;;;;5049187;28;20885;-75
2022/09/29 01:47:46;;;;;;;8.23;3.57;;;8.10;99.90;;;;;;5051674;28;20423;-75
2022/09/29 01:50:17;;;;;;;4.33;3.10;;;8.10;99.90;;;;;;5046558;28;20510;-75
2022/09/29 01:52:48;;;;;;;11.07;4.23;;;8.10;99.90;;;;;;5051211;28;20535;-75
2022/09/29 01:55:21;;;;;;;7.70;3.60;;;8.00;99.90;;;;;;5049395;28;20420;-75
2022/09/29 01:58:17;;;;;;;6.50;3.63;;;8.10;99.90;;;;;;5050525;28;20992;-75
2022/09/29 02:01:00;;;;;;;10.13;3.97;;;8.00;99.90;;;;;;5035169;28;20429;-75
2022/09/29 02:03:32;;;;;;;6.50;4.00;;;8.10;99.90;;;;;;5050454;28;20431;-75
2022/09/29 02:06:07;;;;;;;8.27;3.77;;;8.10;99.90;;;;;;5050721;28;20500;-75
2022/09/29 02:08:48;;;;;;;6.50;3.30;;;8.10;99.90;;;;;;5049478;28;20872;-75
2022/09/29 02:11:16;;;;;;;4.90;3.73;;;8.10;99.90;;;;;;5050421;28;20791;-75
2022/09/29 02:13:45;;;;;;;5.40;4.03;;;8.10;99.90;;;;;;5050382;28;20443;-75
2022/09/29 02:16:15;;;;;;;4.33;3.20;;;8.10;99.90;;;;;;5051884;28;20477;-75
2022/09/29 02:18:52;;;;;;;5.37;3.90;;;8.10;99.90;;;;;;5050270;28;20427;-75
2022/09/29 02:21:18;;;;;;;4.80;3.37;;;8.20;99.90;;;;;;5048865;28;20477;-75
2022/09/29 02:23:44;;;;;;;3.30;2.03;;;8.10;99.90;;;;;;5049804;28;20442;-75
2022/09/29 02:26:11;;;;;;;4.07;2.00;;;8.10;99.90;;;;;;5050055;28;20437;-75
2022/09/29 02:28:37;;;;;;;1.60;1.40;;;8.10;99.90;;;;;;5050079;28;20196;-75
2022/09/29 02:31:02;;;;;;;3.00;1.53;;;8.10;99.90;;;;;;5050331;28;20461;-75
2022/09/29 02:33:28;;;;;;;4.63;2.10;;;8.20;99.90;;;;;;5049720;28;20469;-75
2022/09/29 02:36:19;;;;;;;5.83;1.50;;;8.20;99.90;;;;;;5049664;28;20195;-75
2022/09/29 02:39:17;;;;;;;2.20;1.43;;;8.30;99.90;;;;;;5029654;28;20295;-75
2022/09/29 02:41:49;;;;;;;1.77;1.50;;;8.30;99.90;;;;;;5026226;28;20428;-75
2022/09/29 02:44:21;;;;;;;1.40;1.30;;;8.40;99.90;;;;;;5049413;28;20440;-75
2022/09/29 02:46:47;;;;;;;1.80;1.57;;;8.40;99.90;;;;;;5049865;28;20417;-75
2022/09/29 02:49:32;;;;;;;2.80;1.63;;;8.40;99.90;;;;;;5049445;28;20429;-75
2022/09/29 02:52:24;;;;;;;1.87;1.47;;;8.40;99.90;;;;;;5049306;28;20171;-75
2022/09/29 02:55:04;;;;;;;10.70;3.50;;;8.40;99.90;;;;;;5043405;28;20471;-75
2022/09/29 02:57:58;;;;;;;7.50;4.23;;;8.30;99.90;;;;;;5049329;28;20473;-75
2022/09/29 03:00:26;;;;;;;3.90;3.50;;;8.30;99.90;;;;;;5049311;28;20569;-75
2022/09/29 03:02:51;;;;;;;7.80;3.97;;;8.20;99.90;;;;;;5049120;28;20452;-75
2022/09/29 03:05:20;;;;;;;4.27;3.50;;;8.20;99.90;;;;;;5031328;28;20431;-75
2022/09/29 03:07:45;;;;;;;6.83;3.97;;;8.20;99.90;;;;;;5049173;28;20199;-75
2022/09/29 03:10:13;;;;;;;4.30;3.17;;;8.10;99.90;;;;;;5047747;28;20438;-75
2022/09/29 03:12:39;;;;;;;5.40;3.37;;;8.00;99.90;;;;;;5047632;28;20230;-75
2022/09/29 03:15:06;;;;;;;5.50;3.57;;;8.00;99.90;;;;;;5049043;28;20476;-75
2022/09/29 03:17:32;;;;;;;4.67;3.40;;;8.00;99.90;;;;;;5047345;28;20209;-75
2022/09/29 03:19:57;;;;;;;7.37;3.77;;;7.90;99.90;;;;;;5048981;28;20414;-75
2022/09/29 03:22:24;;;;;;;4.97;3.17;;;7.90;99.90;;;;;;5049729;28;20195;-75
2022/09/29 03:24:49;;;;;;;8.23;5.80;;;7.80;99.90;;;;;;5048821;28;20672;-75
2022/09/29 03:27:15;;;;;;;6.00;3.47;;;7.80;99.90;;;;;;5048995;28;20521;-75
2022/09/29 03:29:41;;;;;;;6.47;3.50;;;7.80;99.90;;;;;;5048980;28;20630;-75
2022/09/29 03:32:06;;;;;;;6.40;3.30;;;7.80;99.90;;;;;;5049123;28;20214;-75
2022/09/29 03:34:33;;;;;;;5.47;3.13;;;7.80;99.90;;;;;;5049060;28;20688;-75
2022/09/29 03:36:59;;;;;;;7.17;3.37;;;7.70;99.90;;;;;;5049014;28;20204;-75
2022/09/29 03:39:25;;;;;;;5.40;3.00;;;7.70;99.90;;;;;;5049158;28;20430;-75
2022/09/29 03:41:51;;;;;;;5.27;2.93;;;7.70;99.90;;;;;;5048933;28;20449;-75
2022/09/29 03:44:16;;;;;;;4.13;2.70;;;7.70;99.90;;;;;;5048650;28;20479;-75
2022/09/29 03:46:42;;;;;;;5.57;3.30;;;7.60;99.90;;;;;;5047392;28;20423;-75
2022/09/29 03:49:11;;;;;;;3.33;3.00;;;7.60;99.90;;;;;;5047366;28;20196;-75
2022/09/29 03:51:38;;;;;;;6.77;3.53;;;7.50;99.90;;;;;;5048805;28;20184;-75
2022/09/29 03:54:04;;;;;;;2.97;2.67;;;7.50;99.90;;;;;;5048816;28;20441;-75
2022/09/29 03:56:30;;;;;;;3.03;2.73;;;7.50;99.90;;;;;;5047228;28;20474;-75
2022/09/29 03:58:55;;;;;;;5.23;3.00;;;7.40;99.90;;;;;;5048958;28;20509;-75
2022/09/29 04:01:21;;;;;;;8.43;3.03;;;7.40;99.90;;;;;;5047705;28;20423;-75
2022/09/29 04:03:47;;;;;;;4.67;3.53;;;7.40;99.90;;;;;;5049669;28;20199;-75
2022/09/29 04:06:13;;;;;;;3.10;2.37;;;7.30;99.90;;;;;;5052999;28;20489;-75
2022/09/29 04:08:38;;;;;;;3.40;2.10;;;7.30;99.90;;;;;;5051485;28;20280;-75
2022/09/29 04:11:05;;;;;;;4.80;2.57;;;7.30;99.90;;;;;;5051503;28;20188;-75
2022/09/29 04:13:32;;;;;;;3.70;2.20;;;7.20;99.90;;;;;;5052762;28;20710;-75
2022/09/29 04:16:02;;;;;;;3.80;2.43;;;7.20;99.90;;;;;;5051613;28;20436;-75
2022/09/29 04:18:28;;;;;;;2.63;1.90;;;7.20;99.90;;;;;;5052933;28;20434;-75
2022/09/29 04:20:56;;;;;;;3.80;2.23;;;7.20;99.90;;;;;;5053165;28;20895;-75
2022/09/29 04:23:22;;;;;;;3.93;2.07;;;7.10;99.90;;;;;;5053031;28;20439;-75
2022/09/29 04:25:48;;;;;;;5.20;1.60;;;7.10;99.90;;;;;;5053162;28;20486;-75
2022/09/29 04:28:14;;;;;;;2.83;1.93;;;7.00;99.90;;;;;;5053104;28;20894;-75
2022/09/29 04:30:39;;;;;;;1.30;1.20;;;7.10;99.90;;;;;;5051838;28;20186;-75
2022/09/29 04:33:05;;;;;;;1.80;1.30;;;7.00;99.90;;;;;;5052979;28;20571;-75
2022/09/29 04:35:30;;;;;;;2.27;1.33;;;7.10;99.90;;;;;;5052900;28;20196;-75
2022/09/29 04:37:57;;;;;;;6.00;1.80;;;7.20;99.90;;;;;;5052832;28;20215;-75
2022/09/29 04:40:24;;;;;;;4.90;2.07;;;7.20;99.90;;;;;;5052705;28;20190;-75
2022/09/29 04:42:50;;;;;;;3.00;2.20;;;7.40;99.90;;;;;;5052715;28;20442;-76
2022/09/29 04:45:15;;;;;;;4.30;2.20;;;7.30;99.90;;;;;;5052797;28;20414;-75
2022/09/29 04:47:41;;;;;;;2.37;2.10;;;7.30;99.90;;;;;;5051103;28;20676;-75
2022/09/29 04:50:08;;;;;;;4.30;2.07;;;7.30;99.90;;;;;;5050821;28;20200;-75
2022/09/29 04:52:35;;;;;;;2.13;1.87;;;7.30;99.90;;;;;;5052269;28;20275;-75
2022/09/29 04:55:01;;;;;;;3.83;2.73;;;7.30;99.90;;;;;;5052172;28;20504;-76
2022/09/29 04:57:27;;;;;;;3.90;3.50;;;7.30;99.90;;;;;;5049184;28;20555;-76
2022/09/29 04:59:53;;;;;;;5.07;4.03;;;7.30;99.90;;;;;;5050806;28;20915;-75
2022/09/29 05:02:18;;;;;;;7.53;3.30;;;7.30;99.90;;;;;;5049169;28;20184;-75
2022/09/29 05:04:46;;;;;;;6.23;2.97;;;7.40;99.90;;;;;;5032771;28;20223;-75
2022/09/29 05:07:12;;;;;;;2.63;2.43;;;7.40;99.90;;;;;;5050553;28;20199;-76
2022/09/29 05:09:37;;;;;;;11.80;2.37;;;7.40;99.90;;;;;;5048951;28;20427;-75
2022/09/29 05:12:03;;;;;;;4.07;1.60;;;7.40;99.90;;;;;;5050474;28;20930;-75
2022/09/29 05:14:29;;;;;;;6.70;3.07;;;7.40;99.90;;;;;;5049953;28;20214;-75
2022/09/29 05:16:55;;;;;;;4.90;2.67;;;7.50;99.90;;;;;;5050670;28;20295;-75
2022/09/29 05:19:20;;;;;;;6.20;3.40;;;7.50;99.90;;;;;;5050374;28;20199;-75
2022/09/29 05:21:46;;;;;;;7.60;4.20;;;7.50;99.90;;;;;;5050275;28;20423;-75
2022/09/29 05:24:12;;;;;;;7.77;5.40;;;7.50;99.90;;;;;;5050289;28;20552;-75
2022/09/29 05:26:38;;;;;;;11.23;6.30;;;7.50;99.90;;;;;;5050254;28;20180;-75
2022/09/29 05:29:03;;;;;;;5.73;4.80;;;7.50;99.90;;;;;;5050531;28;20460;-76
2022/09/29 05:31:29;;;;;;;12.33;5.17;;;7.50;99.90;;;;;;5050167;28;20199;-76
2022/09/29 05:33:56;;;;;;;6.67;5.00;;;7.50;99.90;;;;;;5049009;28;20301;-75
2022/09/29 05:36:22;;;;;;;6.50;4.00;;;7.50;99.90;;;;;;5050335;28;20196;-75
2022/09/29 05:38:48;;;;;;;4.43;4.03;;;7.50;99.90;;;;;;5050617;28;20418;-75
2022/09/29 05:41:21;;;;;;;5.37;4.00;;;7.50;99.90;;;;;;5050595;28;20502;-75
2022/09/29 05:43:48;;;;;;;6.53;4.40;;;7.60;99.90;;;;;;5050640;28;20203;-75
2022/09/29 05:46:15;;;;;;;8.00;3.83;;;7.60;99.90;;;;;;5049261;28;20419;-75
2022/09/29 05:48:42;;;;;;;8.20;5.10;;;7.60;99.90;;;;;;5050701;28;20423;-75
2022/09/29 05:51:17;;;;;;;7.43;4.10;;;7.70;99.90;;;;;;5049012;28;20414;-75
2022/09/29 05:53:42;;;;;;;6.60;4.00;;;7.70;99.90;;;;;;5050414;28;20447;-74
2022/09/29 05:56:14;;;;;;;6.00;3.70;;;7.60;99.90;;;;;;5012356;28;1096128;-75
2022/09/29 05:58:40;;;;;;;11.57;5.67;;;7.70;99.90;;;;;;5051221;28;20413;-75
2022/09/29 06:01:14;;;;;;;7.70;4.90;;;7.80;99.90;;;;;;5049639;28;20433;-76
2022/09/29 06:03:40;;;;;;;7.90;4.93;;;7.70;99.90;;;;;;5050622;28;20445;-76
2022/09/29 06:06:07;;;;;;;4.50;4.10;;;7.70;99.90;;;;;;5050714;28;20418;-76
2022/09/29 06:08:33;;;;;;;5.73;4.30;;;7.70;99.90;;;;;;5049628;28;20430;-75
2022/09/29 06:11:04;;;;;;;9.87;4.30;;;7.70;99.90;;;;;;5050539;28;20418;-75
2022/09/29 06:13:30;;;;;;;5.93;3.80;;;7.60;99.90;;;;;;5050666;28;21065;-75
2022/09/29 06:15:58;;;;;;;3.43;3.13;;;7.70;99.90;;;;;;5050533;28;20414;-75
2022/09/29 06:18:23;;;;;;;3.97;3.27;;;7.80;99.90;;;;;;5052249;28;20645;-76
2022/09/29 06:20:49;;;;;;;6.10;3.50;;;7.90;99.90;;;;;;5053153;28;20423;-75
2022/09/29 06:23:15;;;;;;;5.20;3.17;;;7.90;99.90;;;;;;5035100;28;20197;-76
2022/09/29 06:25:40;;;;;;;5.03;2.40;;;8.00;99.90;;;;;;5051789;28;20194;-75
2022/09/29 06:28:06;;;;;;;3.10;2.80;;;8.10;99.90;;;;;;5050828;28;20189;-75
2022/09/29 06:30:31;;;;;;;11.33;5.13;;;8.20;99.90;;;;;;5050565;28;20194;-75
2022/09/29 06:32:57;;;;;;;11.10;5.80;;;8.30;99.90;;;;;;5052345;28;20208;-75
2022/09/29 06:38:07;;;;;;;30.70;13.70;;;8.40;99.90;;;;;;5049159;28;20364;-74
2022/09/29 06:40:32;;;;;;;17.73;6.37;;;8.50;99.90;;;;;;5050113;28;20540;-75
2022/09/29 06:42:58;;;;;;;17.53;7.00;;;8.50;99.90;;;;;;5050074;28;20207;-75
2022/09/29 06:45:23;;;;;;;16.93;7.10;;;8.60;99.90;;;;;;5049850;28;20179;-75
2022/09/29 06:47:49;;;;;;;12.30;5.93;;;8.70;99.90;;;;;;5049732;28;20250;-75
2022/09/29 06:50:14;;;;;;;6.00;4.60;;;8.70;99.90;;;;;;5049703;28;20212;-75
2022/09/29 06:52:40;;;;;;;4.57;3.00;;;8.80;99.90;;;;;;5049689;28;20199;-75
2022/09/29 06:55:06;;;;;;;4.63;3.20;;;8.80;99.90;;;;;;5048212;28;20231;-75
2022/09/29 06:57:32;;;;;;;4.23;2.67;;;8.80;99.90;;;;;;5049473;28;20688;-75
2022/09/29 06:59:57;;;;;;;3.47;2.10;;;8.90;99.90;;;;;;5049521;28;20508;-75
2022/09/29 07:02:23;;;;;;;2.90;2.40;;;8.90;99.90;;;;;;5031651;28;20195;-75
2022/09/29 07:04:48;;;;;;;4.73;3.37;;;9.00;99.90;;;;;;5049259;28;20283;-75
2022/09/29 07:07:15;;;;;;;9.03;5.53;;;9.10;99.90;;;;;;5049351;28;20676;-75
2022/09/29 07:09:41;;;;;;;14.60;8.10;;;9.10;99.90;;;;;;5049271;28;20195;-75
2022/09/29 07:12:07;;;;;;;14.63;8.40;;;9.10;99.90;;;;;;5049203;28;20442;-75
2022/09/29 07:14:32;;;;;;;10.73;7.03;;;9.20;99.90;;;;;;5047300;28;20442;-75
2022/09/29 07:16:59;;;;;;;7.97;5.63;;;9.20;99.90;;;;;;5047144;28;20564;-75
2022/09/29 07:19:25;;;;;;;9.20;6.47;;;9.40;99.90;;;;;;5048735;28;20181;-75
2022/09/29 07:21:50;;;;;;;9.67;5.60;;;9.20;99.90;;;;;;5048968;28;20425;-75
2022/09/29 07:24:16;;;;;;;11.40;6.13;;;9.10;99.90;;;;;;5048809;28;20208;-75
2022/09/29 07:26:42;;;;;;;8.50;6.00;;;9.10;99.90;;;;;;5048800;28;20199;-75
2022/09/29 07:29:08;;;;;;;17.73;6.10;;;9.20;99.90;;;;;;5048748;28;20572;-75
2022/09/29 07:31:33;;;;;;;7.20;5.50;;;9.20;99.90;;;;;;5047457;28;20188;-75
2022/09/29 07:33:59;;;;;;;8.50;5.20;;;9.30;99.90;;;;;;5048742;28;20474;-75
2022/09/29 07:36:24;;;;;;;7.70;4.90;;;9.30;99.90;;;;;;5048688;28;20211;-75
2022/09/29 07:38:50;;;;;;;5.80;4.97;;;9.40;99.90;;;;;;5048741;28;20961;-75
2022/09/29 07:41:18;;;;;;;7.80;4.70;;;9.40;99.90;;;;;;5048902;28;20188;-75
2022/09/29 07:43:47;;;;;;;13.83;4.87;;;9.40;99.90;;;;;;5047190;28;20447;-75
2022/09/29 07:46:13;;;;;;;7.70;5.13;;;9.50;99.90;;;;;;5048814;28;20501;-75
2022/09/29 07:48:39;;;;;;;6.77;4.90;;;9.50;99.90;;;;;;5048704;28;20426;-75
2022/09/29 07:51:08;;;;;;;7.40;5.50;;;9.60;99.90;;;;;;5048882;28;20517;-75
2022/09/29 07:53:35;;;;;;;7.30;4.43;;;9.70;99.90;;;;;;5048611;28;20443;-75
2022/09/29 07:56:03;;;;;;;9.93;4.37;;;9.80;99.90;;;;;;5048584;28;20458;-75
2022/09/29 07:58:31;;;;;;;4.33;3.73;;;9.90;99.90;;;;;;5048727;28;20433;-75
2022/09/29 08:00:56;;;;;;;10.40;4.80;;;10.00;99.90;;;;;;5048549;28;20427;-75
2022/09/29 08:03:25;;;;;;;5.60;4.00;;;10.00;99.90;;;;;;5047332;28;20465;-75
2022/09/29 08:05:51;;;;;;;4.40;4.00;;;10.20;99.90;;;;;;5048642;28;20184;-75
2022/09/29 08:08:17;;;;;;;5.83;3.53;;;10.30;99.90;;;;;;5048670;28;20443;-75
2022/09/29 08:10:42;;;;;;;3.97;3.60;;;10.40;99.90;;;;;;5047287;28;20925;-75
2022/09/29 08:13:08;;;;;;;7.03;3.83;;;10.40;99.90;;;;;;5047193;28;20205;-75
2022/09/29 08:15:34;;;;;;;10.73;3.60;;;10.40;99.90;;;;;;5050063;28;20639;-75
2022/09/29 08:17:59;;;;;;;4.63;3.40;;;10.50;99.90;;;;;;5048595;28;20211;-75
2022/09/29 08:20:25;;;;;;;3.90;3.50;;;10.50;99.90;;;;;;5048468;28;20190;-75
2022/09/29 08:22:51;;;;;;;5.80;4.00;;;10.60;99.90;;;;;;5048593;28;20202;-75
2022/09/29 08:25:17;;;;;;;5.77;3.90;;;10.50;99.90;;;;;;5030383;28;20426;-75
2022/09/29 08:27:44;;;;;;;4.80;3.33;;;10.60;99.90;;;;;;5048423;28;20186;-75
2022/09/29 08:30:11;;;;;;;8.33;4.17;;;10.60;99.90;;;;;;5048156;28;20500;-75
2022/09/29 08:32:37;;;;;;;7.87;4.17;;;10.70;99.90;;;;;;5048173;28;20426;-75
2022/09/29 08:35:03;;;;;;;6.30;3.93;;;10.80;99.90;;;;;;5048224;28;20426;-75
2022/09/29 08:37:30;;;;;;;4.93;3.70;;;10.90;99.90;;;;;;5048466;28;20547;-75
2022/09/29 08:39:55;;;;;;;4.07;3.30;;;10.90;99.90;;;;;;5048410;28;20525;-75
2022/09/29 08:42:31;;;;;;;7.07;4.37;;;11.20;99.90;;;;;;5048234;28;20528;-75
2022/09/29 08:45:02;;;;;;;14.40;4.20;;;11.10;99.90;;;;;;5048234;28;20175;-75
2022/09/29 08:47:30;;;;;;;5.13;3.33;;;11.20;99.90;;;;;;5048358;28;20428;-75
2022/09/29 08:50:01;;;;;;;7.70;3.20;;;11.20;99.90;;;;;;5049171;28;20492;-75
2022/09/29 08:52:34;;;;;;;6.90;4.77;;;11.10;99.90;;;;;;5052044;28;20440;-75
2022/09/29 08:55:02;;;;;;;7.00;4.27;;;11.10;99.90;;;;;;5050426;28;20517;-75
2022/09/29 08:57:29;;;;;;;6.70;4.07;;;11.10;99.90;;;;;;5051495;28;20478;-75
2022/09/29 08:59:57;;;;;;;4.20;3.47;;;11.20;99.90;;;;;;5051681;28;20449;-75
2022/09/29 09:02:49;;;;;;;4.23;3.83;;;11.30;99.90;;;;;;5051822;28;20432;-75
2022/09/29 09:05:49;;;;;;;10.20;4.50;;;11.40;99.90;;;;;;5029528;28;20783;-75
2022/09/29 09:08:18;;;;;;;6.50;4.43;;;11.60;99.90;;;;;;5034788;28;20799;-75
2022/09/29 09:10:49;;;;;;;4.13;3.73;;;11.70;99.90;;;;;;5049442;28;20425;-75
2022/09/29 09:13:52;;;;;;;6.33;3.43;;;11.80;99.90;;;;;;5049470;28;20922;-75
2022/09/29 09:16:36;;;;;;;6.83;4.10;;;11.70;99.90;;;;;;5050908;28;20511;-76
2022/09/29 09:19:29;;;;;;;5.70;3.33;;;11.80;99.90;;;;;;5049543;28;20415;-75
2022/09/29 09:22:06;;;;;;;3.47;3.10;;;11.80;99.90;;;;;;5049635;28;21009;-75
2022/09/29 09:24:48;;;;;;;5.40;3.90;;;11.90;99.90;;;;;;5049464;28;20567;-75
2022/09/29 09:27:23;;;;;;;5.13;3.83;;;11.90;99.90;;;;;;5051304;28;20466;-75
2022/09/29 09:29:54;;;;;;;4.30;3.57;;;12.10;99.90;;;;;;5051126;28;20430;-75
2022/09/29 09:32:29;;;;;;;7.57;3.60;;;12.10;99.90;;;;;;5051088;28;20479;-75
2022/09/29 09:34:57;;;;;;;7.27;3.37;;;12.20;99.90;;;;;;5050964;28;20421;-75
2022/09/29 09:37:31;;;;;;;7.07;3.33;;;12.30;99.90;;;;;;5050867;28;20482;-75
2022/09/29 09:40:17;;;;;;;5.93;3.60;;;12.50;99.90;;;;;;5051009;28;20507;-75
2022/09/29 09:42:49;;;;;;;8.17;2.90;;;12.50;99.90;;;;;;5050996;28;20413;-75
2022/09/29 09:45:29;;;;;;;6.20;1.93;;;12.60;99.90;;;;;;5049756;28;20433;-75
2022/09/29 09:48:19;;;;;;;9.00;3.27;;;12.60;99.90;;;;;;5051057;28;20525;-75
2022/09/29 09:50:46;;;;;;;6.13;4.47;;;12.50;99.90;;;;;;5050855;28;20972;-75
2022/09/29 09:53:38;;;;;;;6.37;4.43;;;12.50;99.90;;;;;;5049302;28;20453;-74
2022/09/29 09:56:24;;;;;;;2.03;1.73;;;12.50;99.90;;;;;;5040834;28;20460;-74
2022/09/29 09:59:20;;;;;;;4.07;2.20;;;12.50;99.90;;;;;;5050882;28;20518;-75
2022/09/29 10:01:48;;;;;;;2.90;1.83;;;12.50;99.90;;;;;;5049974;28;20463;-74
2022/09/29 10:04:13;;;;;;;2.80;2.10;;;12.40;99.90;;;;;;5050986;28;20438;-74
2022/09/29 10:06:40;;;;;;;6.53;1.80;;;12.40;99.90;;;;;;5051254;28;20775;-74
2022/09/29 10:09:11;;;;;;;6.30;2.13;;;12.40;99.90;;;;;;5051127;28;20272;-74
2022/09/29 10:11:37;;;;;;;2.60;2.40;;;12.30;99.90;;;;;;5051260;28;20429;-75
2022/09/29 10:14:08;;;;;;;9.33;2.80;;;12.30;99.90;;;;;;5049605;28;20442;-74
2022/09/29 10:16:45;;;;;;;4.00;2.20;;;12.30;99.90;;;;;;5049444;28;20203;-74
2022/09/29 10:19:11;;;;;;;5.57;3.20;;;12.30;99.90;;;;;;5050788;28;20414;-75
2022/09/29 10:21:41;;;;;;;3.30;2.97;;;12.30;99.90;;;;;;5050945;28;20654;-75
2022/09/29 10:24:30;;;;;;;4.80;2.70;;;12.30;99.90;;;;;;5049468;28;20220;-75
2022/09/29 10:26:59;;;;;;;4.37;2.90;;;12.20;99.90;;;;;;5041212;28;20438;-74
2022/09/29 10:29:24;;;;;;;8.40;3.00;;;12.10;99.90;;;;;;5050387;28;20427;-75
2022/09/29 10:32:13;;;;;;;3.33;2.17;;;12.00;99.90;;;;;;5050212;28;20414;-74
2022/09/29 10:34:45;;;;;;;5.03;2.90;;;12.00;99.90;;;;;;5050212;28;20673;-75
2022/09/29 10:37:48;;;;;;;3.87;2.40;;;11.90;99.90;;;;;;5050033;28;20456;-74
2022/09/29 10:40:22;;;;;;;3.90;2.23;;;11.90;99.90;;;;;;5044362;28;20429;-76
2022/09/29 10:42:50;;;;;;;5.00;2.37;;;11.90;99.90;;;;;;5050331;28;20439;-75
2022/09/29 10:45:28;;;;;;;3.80;2.73;;;11.90;99.90;;;;;;5050262;28;21009;-75
2022/09/29 10:47:57;;;;;;;5.17;2.70;;;11.90;99.90;;;;;;5050197;28;20451;-75
2022/09/29 10:50:22;;;;;;;4.60;2.80;;;11.90;99.90;;;;;;5049906;28;20818;-75
2022/09/29 10:52:52;;;;;;;5.80;2.77;;;12.10;99.90;;;;;;5050142;28;20525;-75
2022/09/29 10:55:23;;;;;;;5.20;2.70;;;12.20;99.90;;;;;;5048730;28;20192;-75
2022/09/29 10:57:50;;;;;;;3.93;2.63;;;12.20;99.90;;;;;;5048596;28;20477;-75
2022/09/29 11:00:34;;;;;;;4.20;2.50;;;12.30;99.90;;;;;;5051613;28;20421;-75
2022/09/29 11:03:19;;;;;;;9.83;2.27;;;12.40;99.90;;;;;;5056417;28;20470;-75
2022/09/29 11:05:57;;;;;;;8.10;3.13;;;12.50;99.90;;;;;;5055345;28;20516;-75
2022/09/29 11:08:26;;;;;;;6.00;3.13;;;12.50;99.90;;;;;;5059921;28;20424;-75
2022/09/29 11:11:16;;;;;;;3.73;2.40;;;12.80;99.90;;;;;;5068285;28;20426;-76
2022/09/29 11:13:45;;;;;;;5.60;2.23;;;12.90;99.90;;;;;;5068050;28;20437;-75
2022/09/29 11:16:17;;;;;;;5.40;2.40;;;13.10;99.90;;;;;;5066939;28;20421;-75
2022/09/29 11:18:48;;;;;;;3.37;2.00;;;13.20;99.90;;;;;;5060453;28;20476;-75
2022/09/29 11:21:19;;;;;;;3.93;2.20;;;13.70;99.90;;;;;;5051587;28;20480;-76
2022/09/29 11:24:11;;;;;;;4.80;2.03;;;14.00;99.90;;;;;;5049571;28;20474;-75
2022/09/29 11:26:37;;;;;;;8.17;2.53;;;14.50;99.90;;;;;;5029659;28;20900;-75
2022/09/29 11:29:05;;;;;;;4.20;2.30;;;15.00;99.90;;;;;;5049732;28;20442;-75
2022/09/29 11:31:42;;;;;;;2.13;1.63;;;14.90;99.90;;;;;;5049432;28;20285;-75
2022/09/29 11:34:32;;;;;;;4.13;2.10;;;15.10;99.90;;;;;;5049515;28;20434;-75
2022/09/29 11:37:05;;;;;;;3.53;2.33;;;14.90;99.90;;;;;;5049763;28;20497;-75
2022/09/29 11:39:37;;;;;;;5.80;2.03;;;14.90;99.90;;;;;;5049767;28;20461;-74
2022/09/29 11:42:14;;;;;;;4.87;2.20;;;14.90;99.90;;;;;;5049627;28;20418;-74
2022/09/29 11:45:17;;;;;;;4.40;2.33;;;15.10;99.90;;;;;;5048043;28;20446;-75
2022/09/29 11:48:18;;;;;;;4.03;1.77;;;14.80;99.90;;;;;;5016835;28;20446;-75
2022/09/29 11:51:23;;;;;;;4.07;2.03;;;14.70;99.90;;;;;;5049610;28;20433;-75
2022/09/29 11:54:05;;;;;;;7.70;2.37;;;14.40;99.90;;;;;;5028333;28;20450;-76
2022/09/29 11:56:55;;;;;;;2.37;2.17;;;14.70;99.90;;;;;;5048768;28;20503;-76
2022/09/29 11:59:58;;;;;;;2.53;2.30;;;15.20;99.90;;;;;;5048886;28;20970;-75
2022/09/29 12:02:36;;;;;;;5.13;2.23;;;15.30;99.90;;;;;;5049072;28;20497;-75
2022/09/29 12:05:10;;;;;;;24.27;3.30;;;15.40;99.90;;;;;;5048716;28;20415;-75
2022/09/29 12:08:07;;;;;;;5.70;2.10;;;15.50;99.90;;;;;;5048661;28;20422;-75
2022/09/29 12:10:43;;;;;;;2.73;1.87;;;15.90;99.90;;;;;;5048939;28;20418;-75
2022/09/29 12:13:21;;;;;;;8.80;1.90;;;16.10;99.90;;;;;;5047200;28;20534;-76
2022/09/29 12:15:57;;;;;;;4.00;2.17;;;16.30;99.90;;;;;;5048722;28;20792;-76
2022/09/29 12:18:35;;;;;;;3.20;1.80;;;16.30;99.90;;;;;;5048488;28;20560;-76
2022/09/29 12:21:03;;;;;;;3.37;1.67;;;16.00;99.90;;;;;;5048434;28;20419;-76
2022/09/29 12:23:31;;;;;;;4.33;1.63;;;15.90;99.90;;;;;;5047068;28;20909;-75
2022/09/29 12:26:15;;;;;;;4.53;1.40;;;15.90;99.90;;;;;;5051161;28;20473;-76
2022/09/29 12:29:25;;;;;;;8.10;1.60;;;15.90;99.90;;;;;;5052304;28;20420;-76
2022/09/29 12:31:53;;;;;;;4.40;2.10;;;15.90;99.90;;;;;;5009756;28;20429;-76
2022/09/29 12:34:48;;;;;;;1.90;1.70;;;15.70;99.90;;;;;;5044035;28;21121;-76
2022/09/29 12:37:35;;;;;;;6.10;2.07;;;15.50;99.90;;;;;;5052079;28;20880;-76
2022/09/29 12:40:16;;;;;;;5.13;2.20;;;15.40;99.90;;;;;;5051907;28;20446;-76
2022/09/29 12:42:45;;;;;;;4.37;2.27;;;15.30;99.90;;;;;;5052003;28;20471;-76
2022/09/29 12:45:36;;;;;;;2.80;1.83;;;15.20;99.90;;;;;;5051821;28;20407;-76
2022/09/29 12:48:14;;;;;;;4.63;1.57;;;15.10;99.90;;;;;;5051730;28;20414;-76
2022/09/29 12:51:08;;;;;;;8.03;2.10;;;15.00;99.90;;;;;;5052062;28;20416;-76
2022/09/29 12:53:43;;;;;;;2.60;1.80;;;14.90;99.90;;;;;;5051824;28;20433;-76
2022/09/29 12:56:20;;;;;;;4.33;1.57;;;14.80;99.90;;;;;;5051797;28;20423;-76
2022/09/29 12:59:25;;;;;;;1.77;1.50;;;14.80;99.90;;;;;;5050454;28;20437;-76
2022/09/29 13:01:54;;;;;;;2.23;1.70;;;14.80;99.90;;;;;;5035699;28;20450;-76
2022/09/29 13:05:04;;;;;;;6.10;1.67;;;15.10;99.90;;;;;;5051383;28;20461;-76
2022/09/29 13:07:48;;;;;;;6.80;1.77;;;15.30;99.90;;;;;;5051751;28;20450;-76
2022/09/29 13:10:56;;;;;;;6.47;2.23;;;15.40;99.90;;;;;;5051659;28;20418;-75
2022/09/29 13:13:43;;;;;;;3.93;1.57;;;15.50;99.90;;;;;;5051281;28;20438;-76
2022/09/29 13:16:32;;;;;;;4.70;1.90;;;15.60;99.90;;;;;;5051463;28;20517;-76
2022/09/29 13:19:04;;;;;;;2.90;1.53;;;15.50;99.90;;;;;;5049995;28;20461;-76
2022/09/29 13:21:43;;;;;;;5.10;1.63;;;15.60;99.90;;;;;;5051315;28;20498;-76